Time;durP1;ratioP1;P1;durP2;ratioP2;P2;SDS_P1;SDS_P2;PMS_P1;PMS_P2;Temp;Humidity;BMP_temperature;BMP_pressure;BME280_temperature;BME280_humidity;BME280_pressure;Samples;Min_cycle;Max_cycle;Signal;HPM_P1;HPM_P2
2021/12/14 00:00:51;;;;;;;3.03;2.03;;;6.40;99.90;;;;;;5066784;28;20232;-59
2021/12/14 00:03:20;;;;;;;2.70;1.70;;;6.40;99.90;;;;;;5046427;28;20755;-59
2021/12/14 00:05:49;;;;;;;3.77;2.10;;;6.40;99.90;;;;;;5046294;28;20211;-59
2021/12/14 00:08:18;;;;;;;6.00;2.97;;;6.40;99.90;;;;;;5045869;28;20672;-59
2021/12/14 00:11:09;;;;;;;2.30;2.10;;;6.40;99.90;;;;;;5046881;28;20206;-59
2021/12/14 00:13:51;;;;;;;3.53;2.03;;;6.40;99.90;;;;;;5046498;28;20198;-59
2021/12/14 00:16:18;;;;;;;3.80;2.27;;;6.40;99.90;;;;;;5046895;28;20628;-59
2021/12/14 00:18:45;;;;;;;6.13;3.07;;;6.50;99.90;;;;;;5046145;28;20202;-59
2021/12/14 00:21:20;;;;;;;4.43;2.53;;;6.40;99.90;;;;;;5046162;28;20332;-59
2021/12/14 00:26:33;;;;;;;4.00;2.30;;;6.50;99.90;;;;;;5046630;28;20257;-59
2021/12/14 00:29:01;;;;;;;6.67;2.40;;;6.50;99.90;;;;;;5045977;28;20202;-59
2021/12/14 00:31:28;;;;;;;4.83;2.50;;;6.50;99.90;;;;;;5046719;28;20200;-59
2021/12/14 00:34:03;;;;;;;3.97;2.20;;;6.50;99.90;;;;;;5046061;28;20279;-59
2021/12/14 00:36:31;;;;;;;4.13;2.93;;;6.50;99.90;;;;;;5045941;28;20212;-59
2021/12/14 00:38:58;;;;;;;5.37;2.83;;;6.40;99.90;;;;;;5045270;28;20214;-59
2021/12/14 00:41:29;;;;;;;4.50;2.67;;;6.40;99.90;;;;;;5045991;28;20664;-59
2021/12/14 00:43:56;;;;;;;3.47;2.10;;;6.50;99.90;;;;;;5045930;28;20209;-59
2021/12/14 00:46:24;;;;;;;4.67;2.43;;;6.40;99.90;;;;;;5046341;28;20208;-59
2021/12/14 00:48:52;;;;;;;4.57;2.77;;;6.50;99.90;;;;;;5045373;28;20551;-59
2021/12/14 00:51:22;;;;;;;5.20;3.20;;;6.50;99.90;;;;;;5045591;28;20206;-59
2021/12/14 00:53:50;;;;;;;5.00;2.73;;;6.50;99.90;;;;;;5044810;28;20206;-59
2021/12/14 00:56:17;;;;;;;5.43;2.67;;;6.50;99.90;;;;;;5046164;28;20206;-59
2021/12/14 00:58:45;;;;;;;7.60;3.53;;;6.50;99.90;;;;;;5045605;28;20285;-59
2021/12/14 01:01:17;;;;;;;4.50;2.30;;;6.50;99.90;;;;;;5046011;28;20286;-59
2021/12/14 01:03:48;;;;;;;7.90;3.03;;;6.60;99.90;;;;;;5045385;28;20217;-59
2021/12/14 01:06:17;;;;;;;4.13;2.90;;;6.60;99.90;;;;;;5045220;28;20206;-60
2021/12/14 01:08:48;;;;;;;7.43;3.50;;;6.60;99.90;;;;;;5044767;28;20720;-59
2021/12/14 01:11:21;;;;;;;6.10;3.67;;;6.60;99.90;;;;;;5045674;28;20735;-59
2021/12/14 01:14:00;;;;;;;7.00;2.90;;;6.60;99.90;;;;;;5045089;28;20261;-59
2021/12/14 01:16:34;;;;;;;7.17;3.60;;;6.60;99.90;;;;;;5045657;28;20683;-59
2021/12/14 01:19:15;;;;;;;4.50;2.77;;;6.60;99.90;;;;;;5045181;28;20210;-59
2021/12/14 01:22:01;;;;;;;5.17;3.50;;;6.60;99.90;;;;;;5044901;28;20229;-59
2021/12/14 01:25:01;;;;;;;7.53;2.80;;;6.60;99.90;;;;;;5043872;28;20210;-59
2021/12/14 01:27:30;;;;;;;6.90;2.93;;;6.60;99.90;;;;;;5045344;28;20668;-59
2021/12/14 01:30:01;;;;;;;5.97;2.57;;;6.70;99.90;;;;;;5044519;28;20233;-59
2021/12/14 01:32:30;;;;;;;5.47;2.87;;;6.60;99.90;;;;;;5045328;28;20202;-59
2021/12/14 01:34:57;;;;;;;6.40;3.20;;;6.70;99.90;;;;;;5044346;28;20238;-59
2021/12/14 01:37:28;;;;;;;7.50;2.83;;;6.70;99.90;;;;;;5045247;28;20285;-59
2021/12/14 01:40:06;;;;;;;7.47;3.87;;;6.70;99.90;;;;;;5044001;28;20673;-59
2021/12/14 01:42:37;;;;;;;6.47;3.73;;;6.70;99.90;;;;;;5045080;28;20197;-60
2021/12/14 01:45:09;;;;;;;5.50;3.33;;;6.70;99.90;;;;;;5044791;28;20221;-60
2021/12/14 01:47:39;;;;;;;9.43;3.60;;;6.70;99.90;;;;;;5045287;28;20189;-59
2021/12/14 01:50:11;;;;;;;6.27;3.70;;;6.70;99.90;;;;;;5044554;28;20273;-59
2021/12/14 01:52:39;;;;;;;7.07;3.80;;;6.70;99.90;;;;;;5045145;28;20186;-58
2021/12/14 01:55:10;;;;;;;8.50;4.20;;;6.70;99.90;;;;;;5044043;28;20211;-59
2021/12/14 01:57:39;;;;;;;7.50;3.10;;;6.70;99.90;;;;;;5045244;28;20186;-59
2021/12/14 02:00:11;;;;;;;8.93;3.97;;;6.70;99.90;;;;;;5044749;28;20280;-59
2021/12/14 02:02:42;;;;;;;6.63;3.70;;;6.70;99.90;;;;;;5044781;28;20206;-59
2021/12/14 02:05:19;;;;;;;5.77;3.53;;;6.60;99.90;;;;;;5044177;28;20217;-59
2021/12/14 02:07:46;;;;;;;10.10;4.40;;;6.70;99.90;;;;;;5044237;28;20197;-58
2021/12/14 02:10:18;;;;;;;6.30;3.03;;;6.70;99.90;;;;;;5044694;28;20210;-59
2021/12/14 02:12:47;;;;;;;9.30;4.10;;;6.60;99.90;;;;;;5044755;28;20197;-59
2021/12/14 02:15:19;;;;;;;6.60;3.70;;;6.70;99.90;;;;;;5044561;28;20312;-59
2021/12/14 02:17:46;;;;;;;8.20;3.97;;;6.70;99.90;;;;;;5044682;28;20274;-59
2021/12/14 02:20:17;;;;;;;8.03;3.90;;;6.70;99.90;;;;;;5043774;28;20564;-59
2021/12/14 02:22:45;;;;;;;7.93;3.97;;;6.70;99.90;;;;;;5044013;28;20200;-59
2021/12/14 02:25:14;;;;;;;7.53;3.70;;;6.70;99.90;;;;;;5044560;28;20222;-59
2021/12/14 02:27:43;;;;;;;6.77;3.50;;;6.70;99.90;;;;;;5044553;28;20202;-59
2021/12/14 02:30:15;;;;;;;6.43;4.27;;;6.70;99.90;;;;;;5045104;28;20198;-59
2021/12/14 02:32:43;;;;;;;5.93;3.47;;;6.70;99.90;;;;;;5044534;28;20198;-59
2021/12/14 02:35:14;;;;;;;6.40;3.77;;;6.70;99.90;;;;;;5043988;28;20309;-59
2021/12/14 02:37:43;;;;;;;7.17;4.00;;;6.70;99.90;;;;;;5044266;28;20203;-59
2021/12/14 02:40:19;;;;;;;5.67;3.17;;;6.70;99.90;;;;;;5044208;28;20206;-59
2021/12/14 02:42:48;;;;;;;6.27;4.10;;;6.70;99.90;;;;;;5048066;28;20190;-59
2021/12/14 02:45:15;;;;;;;6.63;3.63;;;6.70;99.90;;;;;;5048304;28;20213;-59
2021/12/14 02:47:43;;;;;;;6.20;3.47;;;6.70;99.90;;;;;;5048303;28;20285;-59
2021/12/14 02:50:11;;;;;;;6.73;3.77;;;6.70;99.90;;;;;;5047553;28;20213;-59
2021/12/14 02:52:38;;;;;;;4.63;2.80;;;6.70;99.90;;;;;;5048297;28;20206;-59
2021/12/14 02:55:11;;;;;;;6.00;2.80;;;6.60;99.90;;;;;;5046546;28;20234;-59
2021/12/14 02:57:42;;;;;;;5.93;3.47;;;6.60;99.90;;;;;;5047698;28;20193;-59
2021/12/14 03:00:13;;;;;;;6.07;3.27;;;6.60;99.90;;;;;;5048148;28;20300;-59
2021/12/14 03:02:40;;;;;;;8.73;3.50;;;6.70;99.90;;;;;;5047768;28;20313;-59
2021/12/14 03:05:11;;;;;;;4.87;3.07;;;6.70;99.90;;;;;;5047304;28;20265;-59
2021/12/14 03:07:43;;;;;;;5.47;3.03;;;6.70;99.90;;;;;;5047816;28;20589;-59
2021/12/14 03:10:34;;;;;;;8.20;3.17;;;6.70;99.90;;;;;;5047774;28;20245;-60
2021/12/14 03:13:05;;;;;;;6.00;3.70;;;6.70;99.90;;;;;;5047577;28;20521;-59
2021/12/14 03:15:35;;;;;;;6.17;3.40;;;6.70;99.90;;;;;;5047556;28;20241;-59
2021/12/14 03:18:07;;;;;;;7.47;3.27;;;6.70;99.90;;;;;;5047640;28;20226;-59
2021/12/14 03:20:37;;;;;;;8.07;3.57;;;6.70;99.90;;;;;;5047213;28;20234;-59
2021/12/14 03:23:06;;;;;;;6.43;3.30;;;6.70;99.90;;;;;;5046994;28;20209;-59
2021/12/14 03:25:36;;;;;;;6.87;3.37;;;6.70;99.90;;;;;;5047056;28;20206;-59
2021/12/14 03:28:05;;;;;;;5.60;3.40;;;6.70;99.90;;;;;;5047421;28;20243;-60
2021/12/14 03:30:35;;;;;;;5.83;3.57;;;6.70;99.90;;;;;;5047673;28;20203;-59
2021/12/14 03:33:07;;;;;;;5.83;3.40;;;6.70;99.90;;;;;;5047310;28;20206;-59
2021/12/14 03:35:41;;;;;;;7.10;4.17;;;6.70;99.90;;;;;;5046724;28;20217;-59
2021/12/14 03:38:12;;;;;;;5.70;2.73;;;6.70;99.90;;;;;;5046702;28;20206;-59
2021/12/14 03:40:40;;;;;;;6.27;3.30;;;6.70;99.90;;;;;;5047257;28;20265;-59
2021/12/14 03:43:08;;;;;;;5.77;3.43;;;6.70;99.90;;;;;;5046974;28;20198;-59
2021/12/14 03:45:35;;;;;;;9.07;4.33;;;6.80;99.90;;;;;;5047184;28;20266;-59
2021/12/14 03:48:04;;;;;;;5.70;4.00;;;6.70;99.90;;;;;;5046860;28;20206;-60
2021/12/14 03:50:39;;;;;;;9.73;4.50;;;6.80;99.90;;;;;;5046805;28;20245;-60
2021/12/14 03:53:07;;;;;;;7.53;4.20;;;6.80;99.90;;;;;;5046084;28;20193;-60
2021/12/14 03:55:36;;;;;;;7.83;3.93;;;6.80;99.90;;;;;;5046334;28;20212;-59
2021/12/14 03:58:09;;;;;;;5.47;3.00;;;6.80;99.90;;;;;;5046951;28;20203;-59
2021/12/14 04:00:41;;;;;;;6.80;3.60;;;6.80;99.90;;;;;;5047286;28;20217;-59
2021/12/14 04:03:11;;;;;;;6.13;3.77;;;6.80;99.90;;;;;;5046628;28;20271;-59
2021/12/14 04:05:40;;;;;;;5.93;3.27;;;6.80;99.90;;;;;;5046254;28;20211;-59
2021/12/14 04:08:08;;;;;;;5.50;3.03;;;6.80;99.90;;;;;;5046262;28;20210;-59
2021/12/14 04:10:37;;;;;;;5.80;3.47;;;6.80;99.90;;;;;;5046754;28;20198;-59
2021/12/14 04:13:05;;;;;;;8.27;3.80;;;6.80;99.90;;;;;;5046981;28;20213;-59
2021/12/14 04:15:34;;;;;;;6.33;3.03;;;6.80;99.90;;;;;;5046323;28;20306;-59
2021/12/14 04:18:01;;;;;;;6.47;3.83;;;6.80;99.90;;;;;;5046529;28;20212;-59
2021/12/14 04:20:32;;;;;;;5.07;2.93;;;6.80;99.90;;;;;;5046164;28;20206;-59
2021/12/14 04:23:01;;;;;;;7.37;3.93;;;6.80;99.90;;;;;;5045707;28;20242;-59
2021/12/14 04:25:30;;;;;;;7.07;3.50;;;7.40;99.90;;;;;;5045879;28;20271;-59
2021/12/14 04:28:01;;;;;;;5.97;3.47;;;6.80;99.90;;;;;;5046416;28;20270;-59
2021/12/14 04:30:28;;;;;;;6.37;3.33;;;6.80;99.90;;;;;;5046552;28;20204;-59
2021/12/14 04:33:08;;;;;;;7.17;3.73;;;6.80;99.90;;;;;;5046093;28;20205;-59
2021/12/14 04:35:38;;;;;;;7.40;3.43;;;6.80;99.90;;;;;;5045893;28;20236;-59
2021/12/14 04:38:12;;;;;;;8.73;3.93;;;6.80;99.90;;;;;;5045439;28;20673;-59
2021/12/14 04:54:23;;;;;;;8.53;4.87;;;6.70;99.90;;;;;;5044620;28;20233;-60
2021/12/14 04:56:50;;;;;;;8.40;3.83;;;6.70;99.90;;;;;;5046167;28;20198;-59
2021/12/14 04:59:23;;;;;;;10.53;4.27;;;6.70;99.90;;;;;;5057902;28;20713;-59
2021/12/14 05:01:52;;;;;;;8.70;4.33;;;6.70;99.90;;;;;;5075237;28;20738;-59
2021/12/14 05:04:25;;;;;;;11.10;4.40;;;6.70;99.90;;;;;;5064202;28;20261;-59
2021/12/14 05:06:55;;;;;;;9.60;4.33;;;6.70;99.90;;;;;;5062965;28;20210;-59
2021/12/14 05:09:27;;;;;;;8.57;4.07;;;6.70;99.90;;;;;;5064242;28;20231;-59
2021/12/14 05:11:57;;;;;;;10.17;3.93;;;6.70;99.90;;;;;;5065264;28;20217;-59
2021/12/14 05:14:27;;;;;;;6.67;3.60;;;6.60;99.90;;;;;;5064656;28;20253;-59
2021/12/14 05:16:57;;;;;;;7.87;3.77;;;6.60;99.90;;;;;;5065257;28;20194;-59
2021/12/14 05:19:26;;;;;;;10.00;3.73;;;6.70;99.90;;;;;;5064468;28;20266;-59
2021/12/14 05:21:59;;;;;;;6.90;3.93;;;6.70;99.90;;;;;;5064389;28;20333;-59
2021/12/14 05:24:27;;;;;;;9.13;4.27;;;6.70;99.90;;;;;;5060953;28;20229;-59
2021/12/14 05:26:57;;;;;;;9.77;4.77;;;6.80;99.90;;;;;;5065061;28;20273;-59
2021/12/14 05:29:25;;;;;;;10.47;5.20;;;6.70;99.90;;;;;;5070452;28;20208;-59
2021/12/14 05:31:53;;;;;;;8.90;4.27;;;6.60;99.90;;;;;;5069550;28;20652;-59
2021/12/14 05:34:22;;;;;;;10.03;4.83;;;6.70;99.90;;;;;;5067565;28;20204;-59
2021/12/14 05:36:50;;;;;;;10.47;5.00;;;6.70;99.90;;;;;;5071359;28;20209;-59
2021/12/14 05:39:46;;;;;;;6.07;3.77;;;6.70;99.90;;;;;;5069406;28;20265;-59
2021/12/14 05:45:08;;;;;;;12.40;4.40;;;6.80;99.90;;;;;;5069890;28;20227;-59
2021/12/14 05:47:43;;;;;;;9.40;4.90;;;6.80;99.90;;;;;;5073640;28;20195;-59
2021/12/14 05:50:14;;;;;;;8.67;4.70;;;6.70;99.90;;;;;;5068941;28;20256;-60
2021/12/14 05:52:43;;;;;;;7.10;3.90;;;6.70;99.90;;;;;;5069105;28;20276;-59
2021/12/14 05:55:11;;;;;;;6.47;4.13;;;6.70;99.90;;;;;;5063915;28;20208;-60
2021/12/14 05:57:39;;;;;;;10.70;5.27;;;6.70;99.90;;;;;;5053393;28;20258;-59
2021/12/14 06:00:11;;;;;;;9.07;4.27;;;6.70;99.90;;;;;;5051718;28;20211;-59
2021/12/14 06:02:39;;;;;;;9.80;4.60;;;6.70;99.90;;;;;;5064662;28;20236;-59
2021/12/14 06:05:12;;;;;;;11.47;4.73;;;6.70;99.90;;;;;;5064079;28;20265;-59
2021/12/14 06:07:41;;;;;;;10.10;4.33;;;6.80;99.90;;;;;;5064612;28;20248;-59
2021/12/14 06:10:11;;;;;;;7.10;4.03;;;6.70;99.90;;;;;;5064175;28;20209;-60
2021/12/14 06:12:40;;;;;;;8.93;4.83;;;6.70;99.90;;;;;;5064176;28;20289;-63
2021/12/14 06:15:14;;;;;;;8.57;4.67;;;6.70;99.90;;;;;;5064696;28;20225;-59
2021/12/14 06:17:42;;;;;;;10.43;4.93;;;6.70;99.90;;;;;;5065394;28;20190;-59
2021/12/14 06:20:11;;;;;;;9.10;5.10;;;6.70;99.90;;;;;;5067578;28;20201;-59
2021/12/14 06:22:39;;;;;;;8.73;3.80;;;6.60;99.90;;;;;;5068896;28;20296;-59
2021/12/14 06:25:10;;;;;;;6.40;4.00;;;6.60;99.90;;;;;;5067850;28;20206;-60
2021/12/14 06:27:38;;;;;;;9.03;4.87;;;6.60;99.90;;;;;;5068792;28;20186;-59
2021/12/14 06:30:10;;;;;;;6.77;3.77;;;6.60;99.90;;;;;;5068500;28;20285;-60
2021/12/14 06:32:40;;;;;;;9.40;4.33;;;6.60;99.90;;;;;;5068479;28;20242;-60
2021/12/14 06:35:11;;;;;;;11.57;5.57;;;6.70;99.90;;;;;;5067642;28;20581;-59
2021/12/14 06:38:23;;;;;;;11.23;5.90;;;6.70;99.90;;;;;;5067935;28;20210;-59
2021/12/14 06:41:02;;;;;;;9.40;4.90;;;6.70;99.90;;;;;;5066386;28;20257;-59
2021/12/14 06:43:31;;;;;;;10.53;6.00;;;6.70;99.90;;;;;;5066009;28;20204;-59
2021/12/14 06:46:01;;;;;;;10.93;5.90;;;6.70;99.90;;;;;;5068002;28;20676;-59
2021/12/14 06:48:32;;;;;;;10.30;5.80;;;6.70;99.90;;;;;;5067681;28;20293;-59
2021/12/14 06:51:03;;;;;;;8.20;5.10;;;6.60;99.90;;;;;;5067163;28;20198;-59
2021/12/14 06:53:30;;;;;;;13.80;6.00;;;6.70;99.90;;;;;;5066635;28;20699;-59
2021/12/14 06:56:00;;;;;;;8.53;4.80;;;6.50;99.90;;;;;;5067579;28;20265;-59
2021/12/14 06:58:29;;;;;;;9.50;5.60;;;6.50;99.90;;;;;;5065354;28;20189;-59
2021/12/14 07:01:03;;;;;;;8.97;4.07;;;6.50;99.90;;;;;;5067905;28;20198;-59
2021/12/14 07:03:40;;;;;;;9.87;4.87;;;6.50;99.90;;;;;;5065650;28;20305;-59
2021/12/14 07:06:11;;;;;;;11.47;4.37;;;6.50;99.90;;;;;;5064371;28;20819;-60
2021/12/14 07:08:38;;;;;;;6.33;3.47;;;6.60;99.90;;;;;;5065538;28;20206;-59
2021/12/14 07:11:06;;;;;;;8.00;4.00;;;6.60;99.90;;;;;;5067598;28;20249;-59
2021/12/14 07:13:38;;;;;;;8.27;3.90;;;6.60;99.90;;;;;;5066933;28;20226;-59
2021/12/14 07:16:19;;;;;;;7.40;4.77;;;6.60;99.90;;;;;;5064292;28;20205;-59
2021/12/14 07:18:49;;;;;;;10.70;4.77;;;6.60;99.90;;;;;;5064684;28;20269;-59
2021/12/14 07:21:35;;;;;;;9.67;4.50;;;6.70;99.90;;;;;;5066617;28;20297;-59
2021/12/14 07:24:37;;;;;;;7.23;4.20;;;6.70;99.90;;;;;;5065978;28;20198;-59
2021/12/14 07:27:30;;;;;;;7.07;3.73;;;6.70;99.90;;;;;;5063889;28;20289;-59
2021/12/14 07:30:14;;;;;;;6.13;3.17;;;6.70;99.90;;;;;;5052377;28;20877;-59
2021/12/14 07:32:51;;;;;;;5.27;2.97;;;6.60;99.90;;;;;;5066699;28;20182;-59
2021/12/14 07:35:22;;;;;;;3.90;2.77;;;6.60;99.90;;;;;;5066108;28;20229;-59
2021/12/14 07:37:49;;;;;;;4.67;3.20;;;6.60;99.90;;;;;;5066385;28;20734;-59
2021/12/14 07:40:16;;;;;;;4.47;2.50;;;6.60;99.90;;;;;;5066718;28;20218;-59
2021/12/14 07:42:45;;;;;;;3.97;2.60;;;6.60;99.90;;;;;;5064001;28;20657;-59
2021/12/14 07:45:23;;;;;;;3.70;2.43;;;6.60;99.90;;;;;;5066640;28;20660;-59
2021/12/14 07:47:51;;;;;;;5.47;2.87;;;6.60;99.90;;;;;;5065122;28;20213;-59
2021/12/14 07:50:18;;;;;;;4.17;2.80;;;6.70;99.90;;;;;;5065920;28;20206;-59
2021/12/14 07:52:47;;;;;;;6.47;3.27;;;6.70;99.90;;;;;;5065610;28;20240;-59
2021/12/14 07:55:18;;;;;;;5.97;2.90;;;6.70;99.90;;;;;;5066125;28;20702;-59
2021/12/14 07:57:48;;;;;;;3.90;2.40;;;6.60;99.90;;;;;;5064266;28;20208;-59
2021/12/14 08:00:19;;;;;;;7.77;4.20;;;6.70;99.90;;;;;;5066377;28;20229;-59
2021/12/14 08:02:48;;;;;;;6.63;3.63;;;6.70;99.90;;;;;;5063859;28;20609;-59
2021/12/14 08:05:18;;;;;;;5.87;3.47;;;6.70;99.90;;;;;;5065569;28;20253;-59
2021/12/14 08:07:48;;;;;;;5.17;2.83;;;6.80;99.90;;;;;;5063280;28;20224;-59
2021/12/14 08:10:17;;;;;;;5.37;3.03;;;6.80;99.90;;;;;;5066139;28;20602;-59
2021/12/14 08:12:50;;;;;;;6.50;3.83;;;6.80;99.90;;;;;;5063665;28;20205;-59
2021/12/14 08:15:24;;;;;;;5.97;2.97;;;6.80;99.90;;;;;;5065921;28;20639;-59
2021/12/14 08:18:09;;;;;;;5.10;3.23;;;6.80;99.90;;;;;;5064449;28;20619;-59
2021/12/14 08:20:39;;;;;;;4.53;3.20;;;6.80;99.90;;;;;;5064469;28;20293;-59
2021/12/14 08:23:17;;;;;;;6.37;3.93;;;6.80;99.90;;;;;;5063036;28;20300;-59
2021/12/14 08:25:45;;;;;;;6.20;3.80;;;6.90;99.90;;;;;;5063263;28;20203;-61
2021/12/14 08:28:17;;;;;;;6.30;3.67;;;6.90;99.90;;;;;;5066009;28;20220;-59
2021/12/14 08:30:54;;;;;;;7.10;3.53;;;6.90;99.90;;;;;;5063129;28;20205;-62
2021/12/14 08:33:24;;;;;;;6.37;3.73;;;6.90;99.90;;;;;;5064935;28;20296;-59
2021/12/14 08:35:51;;;;;;;4.97;3.27;;;6.90;99.90;;;;;;5065270;28;20289;-60
2021/12/14 08:38:19;;;;;;;6.43;3.90;;;6.90;99.90;;;;;;5068150;28;20270;-59
2021/12/14 08:40:50;;;;;;;7.03;3.37;;;6.90;99.90;;;;;;5065693;28;20311;-60
2021/12/14 08:43:26;;;;;;;7.83;3.90;;;6.90;99.90;;;;;;5065847;28;20261;-59
2021/12/14 08:45:57;;;;;;;17.07;8.53;;;6.90;99.90;;;;;;5063593;28;20260;-60
2021/12/14 08:48:29;;;;;;;4.50;2.80;;;7.00;99.90;;;;;;5062914;28;20190;-59
2021/12/14 08:50:59;;;;;;;6.03;3.23;;;7.00;99.90;;;;;;5065051;28;20201;-60
2021/12/14 08:53:29;;;;;;;7.53;3.13;;;7.00;99.90;;;;;;5064392;28;20605;-59
2021/12/14 08:55:59;;;;;;;4.90;2.53;;;7.00;99.90;;;;;;5065225;28;20265;-59
2021/12/14 08:58:28;;;;;;;7.03;3.57;;;7.00;99.90;;;;;;5063097;28;20190;-59
2021/12/14 09:01:00;;;;;;;3.80;2.67;;;7.10;99.90;;;;;;5065115;28;20209;-59
2021/12/14 09:03:33;;;;;;;3.10;1.80;;;7.10;99.90;;;;;;5062996;28;20217;-59
2021/12/14 09:06:04;;;;;;;5.60;2.83;;;7.10;99.90;;;;;;5064470;28;20288;-59
2021/12/14 09:08:32;;;;;;;5.70;3.10;;;7.10;99.90;;;;;;5064819;28;20190;-59
2021/12/14 09:11:01;;;;;;;3.00;1.93;;;7.10;99.90;;;;;;5065124;28;20210;-59
2021/12/14 09:13:29;;;;;;;5.13;2.73;;;7.10;99.90;;;;;;5064907;28;20280;-60
2021/12/14 09:16:01;;;;;;;3.30;2.40;;;7.10;99.90;;;;;;5064430;28;20316;-59
2021/12/14 09:18:31;;;;;;;5.43;3.03;;;7.20;99.90;;;;;;5062932;28;20222;-60
2021/12/14 09:21:02;;;;;;;7.63;2.93;;;7.20;99.90;;;;;;5064407;28;20209;-59
2021/12/14 09:23:32;;;;;;;5.30;3.40;;;7.30;99.90;;;;;;5064030;28;20300;-59
2021/12/14 09:26:03;;;;;;;4.97;2.30;;;7.30;99.90;;;;;;5064759;28;20197;-59
2021/12/14 09:28:32;;;;;;;5.67;3.30;;;7.30;99.90;;;;;;5064633;28;20186;-59
2021/12/14 09:31:03;;;;;;;4.37;2.47;;;7.20;99.90;;;;;;5064954;28;20206;-59
2021/12/14 09:33:30;;;;;;;5.47;2.77;;;7.20;99.90;;;;;;5064477;28;20608;-59
2021/12/14 09:35:58;;;;;;;6.40;3.70;;;7.20;99.90;;;;;;5064211;28;20227;-59
2021/12/14 09:38:33;;;;;;;6.33;3.10;;;7.20;99.90;;;;;;5061364;28;20655;-60
2021/12/14 09:41:04;;;;;;;5.40;3.07;;;7.20;99.90;;;;;;5064673;28;20261;-59
2021/12/14 09:43:34;;;;;;;6.07;3.90;;;7.20;99.90;;;;;;5064732;28;20267;-59
2021/12/14 09:46:02;;;;;;;5.43;2.67;;;7.20;99.90;;;;;;5064390;28;20212;-59
2021/12/14 09:48:34;;;;;;;7.13;3.40;;;7.20;99.90;;;;;;5064004;28;20226;-59
2021/12/14 09:51:07;;;;;;;4.57;2.50;;;7.20;99.90;;;;;;5063252;28;20721;-59
2021/12/14 09:53:37;;;;;;;6.77;3.27;;;7.20;99.90;;;;;;5063352;28;20186;-59
2021/12/14 09:56:05;;;;;;;5.23;2.90;;;7.20;99.90;;;;;;5061723;28;20241;-59
2021/12/14 09:58:38;;;;;;;5.17;3.23;;;7.20;99.90;;;;;;5064144;28;20201;-59
2021/12/14 10:01:09;;;;;;;4.97;2.33;;;7.20;99.90;;;;;;5064468;28;20214;-60
2021/12/14 10:03:37;;;;;;;4.67;2.90;;;7.20;99.90;;;;;;5064110;28;20222;-58
2021/12/14 10:06:06;;;;;;;5.63;3.00;;;7.20;99.90;;;;;;5067868;28;20198;-58
2021/12/14 10:08:38;;;;;;;5.73;3.30;;;7.20;99.90;;;;;;5066031;28;20198;-59
2021/12/14 10:11:12;;;;;;;6.37;3.43;;;7.20;99.90;;;;;;5062864;28;20655;-59
2021/12/14 10:13:44;;;;;;;5.83;2.63;;;7.30;99.90;;;;;;5062051;28;20205;-59
2021/12/14 10:16:11;;;;;;;5.97;3.23;;;7.30;99.90;;;;;;5064927;28;20198;-59
2021/12/14 10:18:41;;;;;;;5.33;3.10;;;7.30;99.90;;;;;;5061847;28;20198;-58
2021/12/14 10:21:11;;;;;;;5.33;3.37;;;7.20;99.90;;;;;;5063900;28;20266;-59
2021/12/14 10:23:41;;;;;;;3.73;2.60;;;7.20;99.90;;;;;;5060797;28;20536;-58
2021/12/14 10:26:09;;;;;;;5.37;3.33;;;7.20;99.90;;;;;;5065217;28;20197;-60
2021/12/14 10:28:39;;;;;;;5.73;3.00;;;7.20;99.90;;;;;;5064157;28;20194;-59
2021/12/14 10:31:11;;;;;;;7.87;3.40;;;7.10;99.90;;;;;;5064499;28;20194;-59
2021/12/14 10:33:42;;;;;;;5.17;2.77;;;7.10;99.90;;;;;;5063860;28;20182;-59
2021/12/14 10:36:23;;;;;;;5.03;3.03;;;7.10;99.90;;;;;;5064746;28;20220;-59
2021/12/14 10:39:06;;;;;;;8.40;3.50;;;7.10;99.90;;;;;;5062388;28;20206;-59
2021/12/14 10:44:15;;;;;;;7.10;3.20;;;7.20;99.90;;;;;;5049082;28;20800;-59
2021/12/14 10:46:50;;;;;;;9.73;4.40;;;7.20;99.90;;;;;;5054755;28;20232;-59
2021/12/14 10:49:23;;;;;;;5.27;3.00;;;7.30;99.90;;;;;;5054843;28;20333;-59
2021/12/14 10:51:53;;;;;;;5.93;3.13;;;7.30;99.90;;;;;;5054050;28;20645;-59
2021/12/14 10:54:21;;;;;;;4.37;2.40;;;7.30;99.90;;;;;;5060133;28;20250;-60
2021/12/14 10:56:52;;;;;;;5.40;2.70;;;7.20;99.90;;;;;;5063819;28;20289;-59
2021/12/14 10:59:23;;;;;;;3.43;2.20;;;7.20;99.90;;;;;;5064006;28;20296;-59
2021/12/14 11:01:52;;;;;;;7.97;3.47;;;7.20;99.90;;;;;;5064822;28;20209;-59
2021/12/14 11:04:26;;;;;;;4.53;2.50;;;7.30;99.90;;;;;;5067221;28;20252;-59
2021/12/14 11:06:55;;;;;;;3.80;2.33;;;7.30;99.90;;;;;;5067529;28;20270;-60
2021/12/14 11:09:42;;;;;;;5.67;2.70;;;7.30;99.90;;;;;;5067116;28;20236;-59
2021/12/14 11:12:17;;;;;;;4.77;2.53;;;7.30;99.90;;;;;;5067249;28;20206;-59
2021/12/14 11:14:45;;;;;;;4.77;2.57;;;7.30;99.90;;;;;;5066050;28;20304;-59
2021/12/14 11:20:01;;;;;;;5.77;2.97;;;7.30;99.90;;;;;;5065017;28;20208;-59
2021/12/14 11:22:32;;;;;;;6.87;2.80;;;7.30;99.90;;;;;;5066968;28;20205;-59
2021/12/14 11:25:04;;;;;;;2.83;1.93;;;7.30;99.90;;;;;;5065700;28;20217;-59
2021/12/14 11:27:36;;;;;;;4.17;2.57;;;7.30;99.90;;;;;;5067301;28;20254;-60
2021/12/14 11:30:18;;;;;;;3.53;2.20;;;7.30;99.90;;;;;;5059534;28;20210;-59
2021/12/14 11:32:49;;;;;;;5.93;2.53;;;7.20;99.90;;;;;;5066503;28;20253;-59
2021/12/14 11:35:22;;;;;;;6.23;2.77;;;7.20;99.90;;;;;;5066863;28;20212;-59
2021/12/14 11:37:50;;;;;;;4.27;2.10;;;7.20;99.90;;;;;;5066310;28;20332;-59
2021/12/14 11:40:20;;;;;;;5.10;2.67;;;7.20;99.90;;;;;;5067571;28;20233;-59
2021/12/14 11:42:48;;;;;;;6.47;2.53;;;7.20;99.90;;;;;;5067416;28;20208;-59
2021/12/14 11:45:19;;;;;;;6.17;2.80;;;7.20;99.90;;;;;;5067046;28;20321;-59
2021/12/14 11:47:49;;;;;;;4.73;2.43;;;7.30;99.90;;;;;;5067462;28;20276;-59
2021/12/14 11:50:24;;;;;;;5.30;3.27;;;7.30;99.90;;;;;;5066904;28;20241;-59
2021/12/14 11:52:56;;;;;;;6.93;2.50;;;7.40;99.90;;;;;;5066233;28;20228;-59
2021/12/14 11:55:33;;;;;;;9.13;3.03;;;7.40;99.90;;;;;;5066938;28;20213;-59
2021/12/14 11:58:30;;;;;;;4.87;2.50;;;7.30;99.90;;;;;;5066989;28;20213;-59
2021/12/14 12:01:06;;;;;;;6.03;2.20;;;7.30;99.90;;;;;;5065512;28;20259;-59
2021/12/14 12:03:42;;;;;;;4.70;2.27;;;7.30;99.90;;;;;;5066845;28;20209;-59
2021/12/14 12:06:14;;;;;;;4.23;2.40;;;7.30;99.90;;;;;;5065396;28;20233;-59
2021/12/14 12:11:36;;;;;;;3.97;2.40;;;7.20;99.90;;;;;;5067017;28;20278;-59
2021/12/14 12:14:26;;;;;;;4.00;1.57;;;7.20;99.90;;;;;;5065852;28;20241;-59
2021/12/14 12:16:55;;;;;;;5.90;2.37;;;7.20;99.90;;;;;;5066754;28;20705;-58
2021/12/14 12:19:27;;;;;;;5.50;2.63;;;7.20;99.90;;;;;;5066475;28;20210;-58
2021/12/14 12:21:54;;;;;;;3.93;2.03;;;7.10;99.90;;;;;;5066398;28;20205;-58
2021/12/14 12:24:49;;;;;;;4.13;2.30;;;7.00;99.90;;;;;;5065205;28;20257;-58
2021/12/14 12:27:28;;;;;;;3.80;2.23;;;6.90;99.90;;;;;;4985411;28;20275;-59
2021/12/14 12:30:12;;;;;;;4.47;2.33;;;6.90;99.90;;;;;;4984228;28;20208;-58
2021/12/14 12:32:40;;;;;;;8.17;3.00;;;6.80;99.90;;;;;;4984261;28;20189;-59
2021/12/14 12:35:26;;;;;;;5.27;2.80;;;6.80;99.90;;;;;;4982197;28;20204;-60
2021/12/14 12:37:55;;;;;;;5.73;3.10;;;6.90;99.90;;;;;;4984502;28;20208;-58
2021/12/14 12:40:36;;;;;;;7.77;2.83;;;6.80;99.90;;;;;;4984505;28;20296;-59
2021/12/14 12:43:21;;;;;;;5.77;2.83;;;6.80;99.90;;;;;;4984526;28;20220;-58
2021/12/14 12:45:58;;;;;;;11.33;3.40;;;6.90;99.90;;;;;;4982074;28;20264;-58
2021/12/14 12:48:50;;;;;;;13.57;3.80;;;6.90;99.90;;;;;;4984443;28;20275;-58
2021/12/14 12:52:07;;;;;;;6.63;2.57;;;6.90;99.90;;;;;;4982533;28;20208;-58
2021/12/14 12:55:01;;;;;;;8.67;3.80;;;6.90;99.90;;;;;;4981477;28;20196;-58
2021/12/14 12:57:37;;;;;;;5.07;2.50;;;6.90;99.90;;;;;;4982348;28;20211;-58
2021/12/14 13:00:35;;;;;;;17.50;5.63;;;6.90;99.90;;;;;;4984571;28;20219;-59
2021/12/14 13:03:08;;;;;;;5.50;2.53;;;6.80;99.90;;;;;;5025404;28;20244;-59
2021/12/14 13:05:41;;;;;;;8.00;3.53;;;6.80;99.90;;;;;;5064889;28;20692;-60
2021/12/14 13:08:16;;;;;;;11.53;4.40;;;6.80;99.90;;;;;;5065240;28;20182;-59
2021/12/14 13:10:45;;;;;;;4.27;2.80;;;6.80;99.90;;;;;;5065671;28;20205;-59
2021/12/14 13:13:14;;;;;;;7.80;2.93;;;6.80;99.90;;;;;;5064027;28;20221;-59
2021/12/14 13:15:56;;;;;;;9.23;4.83;;;6.80;99.90;;;;;;5064031;28;20222;-73
2021/12/14 13:18:34;;;;;;;32.97;9.87;;;6.80;99.90;;;;;;5045474;28;20197;-61
2021/12/14 13:21:09;;;;;;;8.63;3.30;;;6.80;99.90;;;;;;5057794;28;20198;-62
2021/12/14 13:23:50;;;;;;;3.60;2.43;;;6.80;99.90;;;;;;5063728;28;20256;-61
2021/12/14 13:26:31;;;;;;;2.90;2.10;;;6.80;99.90;;;;;;5064417;28;20699;-61
2021/12/14 13:29:06;;;;;;;3.93;1.83;;;6.80;99.90;;;;;;5065304;28;20247;-61
2021/12/14 13:31:38;;;;;;;13.23;6.97;;;6.80;99.90;;;;;;5065454;28;20243;-61
2021/12/14 13:34:09;;;;;;;5.07;3.13;;;6.80;99.90;;;;;;5063480;28;20199;-61
2021/12/14 13:36:37;;;;;;;6.37;2.30;;;6.80;99.90;;;;;;5064684;28;20267;-61
2021/12/14 13:39:07;;;;;;;12.80;4.73;;;6.80;99.90;;;;;;5064533;28;20293;-61
2021/12/14 13:41:53;;;;;;;6.80;3.50;;;6.90;99.90;;;;;;5048682;28;20202;-62
2021/12/14 13:44:22;;;;;;;5.30;2.03;;;6.90;99.90;;;;;;5045016;28;20631;-61
2021/12/14 13:46:49;;;;;;;11.77;5.50;;;6.90;99.90;;;;;;5045454;28;20202;-62
2021/12/14 13:49:16;;;;;;;7.33;3.73;;;6.90;99.90;;;;;;5044759;28;20217;-62